Time;durP1;ratioP1;P1;durP2;ratioP2;P2;SDS_P1;SDS_P2;PMS_P1;PMS_P2;Temp;Humidity;BMP_temperature;BMP_pressure;BME280_temperature;BME280_humidity;BME280_pressure;Samples;Min_cycle;Max_cycle;Signal;HPM_P1;HPM_P2
2021/10/15 00:02:07;;;;;;;7.85;3.05;;;;;;;;;;6150925;23;20063;-58
2021/10/15 00:04:32;;;;;;;8.88;2.92;;;;;;;;;;6150220;23;20027;-58
2021/10/15 00:06:58;;;;;;;6.38;3.40;;;;;;;;;;6151627;23;20009;-58
2021/10/15 00:09:24;;;;;;;6.70;3.00;;;;;;;;;;6151240;23;20312;-58
2021/10/15 00:11:49;;;;;;;7.75;2.90;;;;;;;;;;6151017;23;20006;-58
2021/10/15 00:14:15;;;;;;;4.65;2.75;;;;;;;;;;6151857;23;20002;-58
2021/10/15 00:16:40;;;;;;;7.00;2.90;;;;;;;;;;6151989;23;20001;-58
2021/10/15 00:19:06;;;;;;;5.32;2.80;;;;;;;;;;6148980;23;20036;-58
2021/10/15 00:21:32;;;;;;;7.18;3.22;;;;;;;;;;6125844;23;20033;-58
2021/10/15 00:23:57;;;;;;;4.60;2.70;;;;;;;;;;6151877;23;20336;-58
2021/10/15 00:26:23;;;;;;;6.68;3.10;;;;;;;;;;6126038;23;20064;-58
2021/10/15 00:28:48;;;;;;;6.68;3.15;;;;;;;;;;6151131;23;20113;-58
2021/10/15 00:31:13;;;;;;;6.93;3.30;;;;;;;;;;6151745;23;20035;-58
2021/10/15 00:33:39;;;;;;;5.57;3.35;;;;;;;;;;6151280;23;20015;-58
2021/10/15 00:36:04;;;;;;;4.68;3.38;;;;;;;;;;6150454;23;20560;-58
2021/10/15 00:38:30;;;;;;;7.60;3.45;;;;;;;;;;6152146;23;20009;-58
2021/10/15 00:40:55;;;;;;;6.90;3.50;;;;;;;;;;6150898;23;20033;-58
2021/10/15 00:43:21;;;;;;;7.75;3.67;;;;;;;;;;6151716;23;20088;-58
2021/10/15 00:45:46;;;;;;;6.72;4.03;;;;;;;;;;6152073;23;20005;-59
2021/10/15 00:48:12;;;;;;;5.88;3.40;;;;;;;;;;6151233;23;20005;-58
2021/10/15 00:50:37;;;;;;;5.75;3.30;;;;;;;;;;6148962;23;20472;-58
2021/10/15 00:53:03;;;;;;;7.10;3.58;;;;;;;;;;6151727;23;20010;-58
2021/10/15 00:55:30;;;;;;;8.07;3.28;;;;;;;;;;6151121;23;20045;-58
2021/10/15 00:57:56;;;;;;;7.45;3.63;;;;;;;;;;6151557;23;20017;-58
2021/10/15 01:00:21;;;;;;;7.55;3.53;;;;;;;;;;6150483;23;20025;-58
2021/10/15 01:02:47;;;;;;;5.40;3.65;;;;;;;;;;6124590;23;20009;-58
2021/10/15 01:05:13;;;;;;;7.05;3.65;;;;;;;;;;6150406;23;20002;-58
2021/10/15 01:07:38;;;;;;;7.78;3.40;;;;;;;;;;6150113;23;20080;-58
2021/10/15 01:10:05;;;;;;;5.72;3.50;;;;;;;;;;6150615;23;20001;-58
2021/10/15 01:12:31;;;;;;;7.87;3.37;;;;;;;;;;6151097;23;19997;-58
2021/10/15 01:14:56;;;;;;;6.50;3.67;;;;;;;;;;6151046;23;20076;-58
2021/10/15 01:17:22;;;;;;;8.00;3.33;;;;;;;;;;6151031;23;20044;-58
2021/10/15 01:19:54;;;;;;;5.38;3.13;;;;;;;;;;6152117;23;20490;-58
2021/10/15 01:22:24;;;;;;;7.40;3.30;;;;;;;;;;6148581;23;20092;-58
2021/10/15 01:24:50;;;;;;;6.22;3.30;;;;;;;;;;6125256;23;20436;-58
2021/10/15 01:27:15;;;;;;;5.88;2.97;;;;;;;;;;6150884;23;20502;-58
2021/10/15 01:29:41;;;;;;;4.80;3.25;;;;;;;;;;6124740;23;20001;-58
2021/10/15 01:32:09;;;;;;;7.25;3.45;;;;;;;;;;6151384;23;20032;-58
2021/10/15 01:34:35;;;;;;;6.35;3.38;;;;;;;;;;6150433;23;20011;-58
2021/10/15 01:37:00;;;;;;;6.95;3.53;;;;;;;;;;6150279;23;20025;-59
2021/10/15 01:39:25;;;;;;;5.95;3.20;;;;;;;;;;6150035;23;20056;-58
2021/10/15 01:41:51;;;;;;;7.40;3.97;;;;;;;;;;6150773;23;20002;-58
2021/10/15 01:44:16;;;;;;;6.00;3.58;;;;;;;;;;6150530;23;20010;-58
2021/10/15 01:46:42;;;;;;;6.13;3.47;;;;;;;;;;6151961;23;20033;-58
2021/10/15 01:49:08;;;;;;;8.73;3.58;;;;;;;;;;6123704;23;20593;-58
2021/10/15 01:51:33;;;;;;;4.22;3.13;;;;;;;;;;6152404;23;19994;-59
2021/10/15 01:53:58;;;;;;;6.15;3.97;;;;;;;;;;6149050;23;20379;-59
2021/10/15 01:56:24;;;;;;;6.03;3.75;;;;;;;;;;6149075;23;20474;-58
2021/10/15 01:58:49;;;;;;;5.78;3.35;;;;;;;;;;6141477;23;20049;-58
2021/10/15 02:01:14;;;;;;;6.82;3.80;;;;;;;;;;6147327;23;20463;-58
2021/10/15 02:03:40;;;;;;;6.53;3.75;;;;;;;;;;6147285;23;20014;-58
2021/10/15 02:06:05;;;;;;;5.60;3.22;;;;;;;;;;6146930;23;20017;-58
2021/10/15 02:08:30;;;;;;;7.30;3.85;;;;;;;;;;6145209;23;20571;-60
2021/10/15 02:10:56;;;;;;;6.30;3.75;;;;;;;;;;6148852;23;20100;-58
2021/10/15 02:13:21;;;;;;;6.35;3.47;;;;;;;;;;6122359;23;20001;-58
2021/10/15 02:15:46;;;;;;;7.68;3.88;;;;;;;;;;6148069;23;20083;-58
2021/10/15 02:18:12;;;;;;;7.05;3.78;;;;;;;;;;6147900;23;20021;-58
2021/10/15 02:20:37;;;;;;;7.07;4.25;;;;;;;;;;6149170;23;20017;-58
2021/10/15 02:23:03;;;;;;;7.05;4.25;;;;;;;;;;6149802;23;20032;-58
2021/10/15 02:25:29;;;;;;;7.22;3.90;;;;;;;;;;6142815;23;20408;-59
2021/10/15 02:27:55;;;;;;;9.30;5.07;;;;;;;;;;6142981;23;20005;-58
2021/10/15 02:30:21;;;;;;;7.03;4.07;;;;;;;;;;6148538;23;20005;-58
2021/10/15 02:32:47;;;;;;;5.85;3.90;;;;;;;;;;6147963;23;20008;-58
2021/10/15 02:35:14;;;;;;;5.60;3.67;;;;;;;;;;6146449;23;20006;-58
2021/10/15 02:37:43;;;;;;;9.20;4.03;;;;;;;;;;6147617;23;20313;-58
2021/10/15 02:40:09;;;;;;;6.85;4.40;;;;;;;;;;6120826;23;20013;-58
2021/10/15 02:42:35;;;;;;;7.38;4.20;;;;;;;;;;6147676;23;20047;-59
2021/10/15 02:45:02;;;;;;;7.43;4.00;;;;;;;;;;6120765;23;20018;-58
2021/10/15 02:47:27;;;;;;;7.07;4.18;;;;;;;;;;6148280;23;20005;-58
2021/10/15 02:49:53;;;;;;;7.80;3.85;;;;;;;;;;6148006;23;20124;-58
2021/10/15 02:52:18;;;;;;;6.90;3.90;;;;;;;;;;6148290;23;20454;-59
2021/10/15 02:54:44;;;;;;;9.77;4.20;;;;;;;;;;6148556;23;20578;-58
2021/10/15 02:57:09;;;;;;;7.03;4.25;;;;;;;;;;6147137;23;20009;-58
2021/10/15 02:59:34;;;;;;;7.88;4.22;;;;;;;;;;6117979;23;20047;-58
2021/10/15 03:02:00;;;;;;;6.82;4.55;;;;;;;;;;6147867;23;20729;-59
2021/10/15 03:04:26;;;;;;;9.85;4.57;;;;;;;;;;6145999;23;20009;-58
2021/10/15 03:06:51;;;;;;;7.45;4.10;;;;;;;;;;6147945;23;20343;-58
2021/10/15 03:09:16;;;;;;;5.60;3.88;;;;;;;;;;6146788;23;20440;-58
2021/10/15 03:11:42;;;;;;;7.57;4.15;;;;;;;;;;6147455;23;20025;-59
2021/10/15 03:14:07;;;;;;;7.82;3.90;;;;;;;;;;6147340;23;20088;-58
2021/10/15 03:16:32;;;;;;;7.90;4.80;;;;;;;;;;6146554;23;20198;-58
2021/10/15 03:18:58;;;;;;;7.43;4.60;;;;;;;;;;6146826;23;20021;-58
2021/10/15 03:21:23;;;;;;;6.93;4.20;;;;;;;;;;6146017;23;20012;-58
2021/10/15 03:23:48;;;;;;;8.85;4.63;;;;;;;;;;6146809;23;20610;-58
2021/10/15 03:26:14;;;;;;;8.85;4.82;;;;;;;;;;6147307;23;20838;-59
2021/10/15 03:28:39;;;;;;;6.82;4.35;;;;;;;;;;6147782;23;20009;-58
2021/10/15 03:31:05;;;;;;;9.60;4.95;;;;;;;;;;6146886;23;20139;-59
2021/10/15 03:33:30;;;;;;;6.25;4.55;;;;;;;;;;6145809;23;20607;-58
2021/10/15 03:35:56;;;;;;;7.32;4.80;;;;;;;;;;6147101;23;20490;-58
2021/10/15 03:38:21;;;;;;;9.48;5.30;;;;;;;;;;6120118;23;20008;-58
2021/10/15 03:40:46;;;;;;;10.88;7.28;;;;;;;;;;6146989;23;20032;-58
2021/10/15 03:43:12;;;;;;;12.00;7.43;;;;;;;;;;6148163;23;20497;-58
2021/10/15 03:45:37;;;;;;;13.70;7.78;;;;;;;;;;6146779;23;20018;-60
2021/10/15 03:48:02;;;;;;;18.45;10.40;;;;;;;;;;6147272;23;20643;-58
2021/10/15 03:50:28;;;;;;;27.90;13.05;;;;;;;;;;6147922;23;20013;-59
2021/10/15 03:52:53;;;;;;;18.42;9.52;;;;;;;;;;6148271;23;20005;-58
2021/10/15 03:55:19;;;;;;;21.85;11.70;;;;;;;;;;6147536;23;20096;-59
2021/10/15 03:57:44;;;;;;;30.38;13.75;;;;;;;;;;6145945;23;20709;-58
2021/10/15 04:00:11;;;;;;;33.08;14.27;;;;;;;;;;6146253;23;20025;-58
2021/10/15 04:02:42;;;;;;;13.80;8.48;;;;;;;;;;6121388;23;20009;-58
2021/10/15 04:05:09;;;;;;;12.82;7.40;;;;;;;;;;6145255;23;20010;-58
2021/10/15 04:07:34;;;;;;;11.20;6.57;;;;;;;;;;6121363;23;20033;-58
2021/10/15 04:10:00;;;;;;;10.10;5.65;;;;;;;;;;6146205;23;20424;-58
2021/10/15 04:12:25;;;;;;;9.88;5.65;;;;;;;;;;6146975;23;20008;-58
2021/10/15 04:14:50;;;;;;;10.98;5.88;;;;;;;;;;6147479;23;20059;-59
2021/10/15 04:17:16;;;;;;;8.30;6.63;;;;;;;;;;6147489;23;20006;-58
2021/10/15 04:19:41;;;;;;;36.42;17.75;;;;;;;;;;6147075;23;20016;-58
2021/10/15 04:22:10;;;;;;;67.85;31.02;;;;;;;;;;6146684;23;20010;-58
2021/10/15 04:24:36;;;;;;;32.22;17.33;;;;;;;;;;6145849;23;20596;-58
2021/10/15 04:27:02;;;;;;;32.95;17.52;;;;;;;;;;6148096;23;20061;-58
2021/10/15 04:29:27;;;;;;;19.25;13.10;;;;;;;;;;6147883;23;20010;-58
2021/10/15 04:31:52;;;;;;;12.02;7.85;;;;;;;;;;6148157;23;20033;-58
2021/10/15 04:34:18;;;;;;;8.88;6.55;;;;;;;;;;6147557;23;20010;-58
2021/10/15 04:36:43;;;;;;;10.82;7.53;;;;;;;;;;6144437;23;20009;-58
2021/10/15 04:39:08;;;;;;;11.65;7.63;;;;;;;;;;6145168;23;20443;-58
2021/10/15 04:41:34;;;;;;;10.55;8.10;;;;;;;;;;6148268;23;20068;-58
2021/10/15 04:43:59;;;;;;;14.77;8.10;;;;;;;;;;6146839;23;20052;-58
2021/10/15 04:46:26;;;;;;;9.02;6.70;;;;;;;;;;6147229;23;20500;-58
2021/10/15 04:48:51;;;;;;;9.75;6.55;;;;;;;;;;6145962;23;20371;-58
2021/10/15 04:51:17;;;;;;;12.45;7.10;;;;;;;;;;6148189;23;20001;-58
2021/10/15 04:53:42;;;;;;;10.70;7.18;;;;;;;;;;6148165;23;20010;-58
2021/10/15 04:56:08;;;;;;;15.32;9.63;;;;;;;;;;6147483;23;20014;-58
2021/10/15 04:58:33;;;;;;;10.13;7.57;;;;;;;;;;6120177;23;20041;-57
2021/10/15 05:00:58;;;;;;;12.05;8.80;;;;;;;;;;6146752;23;20072;-58
2021/10/15 05:03:23;;;;;;;13.85;10.43;;;;;;;;;;6147546;23;20013;-58
2021/10/15 05:05:49;;;;;;;12.77;7.97;;;;;;;;;;6147539;23;20005;-58
2021/10/15 05:08:16;;;;;;;12.43;8.40;;;;;;;;;;6143578;23;20618;-58
2021/10/15 05:10:44;;;;;;;11.23;8.45;;;;;;;;;;6147069;23;20010;-58
2021/10/15 05:13:11;;;;;;;14.20;9.60;;;;;;;;;;6121560;23;20006;-58
2021/10/15 05:15:36;;;;;;;;;;;;;;;;;;6146777;23;20080;-58
2021/10/15 05:18:02;;;;;;;13.02;8.98;;;;;;;;;;6147424;23;19936;-58
2021/10/15 05:20:27;;;;;;;11.65;8.40;;;;;;;;;;6147252;23;20191;-58
2021/10/15 05:22:52;;;;;;;11.40;8.93;;;;;;;;;;6146663;23;20799;-58
2021/10/15 05:25:18;;;;;;;12.48;8.43;;;;;;;;;;6147577;23;20009;-58
2021/10/15 05:27:44;;;;;;;11.52;7.90;;;;;;;;;;6147534;23;20006;-60
2021/10/15 05:30:11;;;;;;;12.13;8.37;;;;;;;;;;6148299;23;20005;-58
2021/10/15 05:32:38;;;;;;;11.38;8.10;;;;;;;;;;6149101;23;19993;-59
2021/10/15 05:35:04;;;;;;;15.75;8.65;;;;;;;;;;6149848;23;20006;-58
2021/10/15 05:37:30;;;;;;;13.83;8.20;;;;;;;;;;6122968;23;20009;-60
2021/10/15 05:39:55;;;;;;;10.75;8.10;;;;;;;;;;6122173;23;20411;-58
2021/10/15 05:42:21;;;;;;;11.43;8.23;;;;;;;;;;6145775;23;20009;-58
2021/10/15 05:44:47;;;;;;;12.13;8.27;;;;;;;;;;6148081;23;20012;-58
2021/10/15 05:47:13;;;;;;;12.52;8.48;;;;;;;;;;6149652;23;20089;-58
2021/10/15 05:49:40;;;;;;;13.88;8.75;;;;;;;;;;6148607;23;20108;-58
2021/10/15 05:52:30;;;;;;;13.95;8.85;;;;;;;;;;6149631;23;20005;-58
2021/10/15 06:00:29;;;;;;;14.10;9.35;;;;;;;;;;6147151;23;20039;-58
2021/10/15 06:02:55;;;;;;;13.75;9.05;;;;;;;;;;6121457;23;20359;-58
2021/10/15 06:16:06;;;;;;;15.32;9.73;;;;;;;;;;6157818;23;20050;-58
2021/10/15 06:18:37;;;;;;;15.15;9.02;;;;;;;;;;6146227;23;20016;-58
2021/10/15 06:21:03;;;;;;;13.43;9.98;;;;;;;;;;6148670;23;20013;-58
2021/10/15 06:23:30;;;;;;;14.90;10.48;;;;;;;;;;6122424;23;20005;-58
2021/10/15 06:25:56;;;;;;;16.45;11.50;;;;;;;;;;6147546;23;20077;-60
2021/10/15 06:28:22;;;;;;;18.50;10.00;;;;;;;;;;6148528;23;20011;-59
2021/10/15 06:30:47;;;;;;;13.90;9.30;;;;;;;;;;6148903;23;20009;-58
2021/10/15 06:33:12;;;;;;;13.40;9.20;;;;;;;;;;6147655;23;20097;-58
2021/10/15 06:35:38;;;;;;;13.90;9.00;;;;;;;;;;6147955;23;20013;-58
2021/10/15 06:38:06;;;;;;;13.95;9.75;;;;;;;;;;6147809;23;20339;-58
2021/10/15 06:40:33;;;;;;;15.90;10.27;;;;;;;;;;6147113;23;20585;-58
2021/10/15 06:42:58;;;;;;;21.90;12.40;;;;;;;;;;6147291;23;20017;-58
2021/10/15 06:45:24;;;;;;;12.77;9.00;;;;;;;;;;6145221;23;20064;-58
2021/10/15 06:47:49;;;;;;;13.30;8.70;;;;;;;;;;6122345;23;20001;-58
2021/10/15 06:50:14;;;;;;;13.68;8.27;;;;;;;;;;6122359;23;20316;-58
2021/10/15 06:52:46;;;;;;;14.85;9.98;;;;;;;;;;6147881;23;20025;-58
2021/10/15 06:55:14;;;;;;;21.13;11.10;;;;;;;;;;6148370;23;20451;-58
2021/10/15 06:57:40;;;;;;;11.68;8.45;;;;;;;;;;6148357;23;20080;-58
2021/10/15 07:00:06;;;;;;;12.07;8.35;;;;;;;;;;6147661;23;20560;-58
2021/10/15 07:02:31;;;;;;;14.00;9.18;;;;;;;;;;6146637;23;20024;-58
2021/10/15 07:04:56;;;;;;;11.90;7.80;;;;;;;;;;6147156;23;20432;-58
2021/10/15 07:07:22;;;;;;;11.50;7.72;;;;;;;;;;6147238;23;20479;-58
2021/10/15 07:09:47;;;;;;;13.20;8.32;;;;;;;;;;6147835;23;20006;-58
2021/10/15 07:12:13;;;;;;;12.93;8.82;;;;;;;;;;6146055;23;20009;-58
2021/10/15 07:14:38;;;;;;;13.25;9.15;;;;;;;;;;6146559;23;20092;-58
2021/10/15 07:17:04;;;;;;;10.48;7.88;;;;;;;;;;6144804;23;20467;-58
2021/10/15 07:19:29;;;;;;;10.93;7.88;;;;;;;;;;6144572;23;20012;-58
2021/10/15 07:21:55;;;;;;;13.07;7.70;;;;;;;;;;6143958;23;20012;-59
2021/10/15 07:24:20;;;;;;;11.73;8.07;;;;;;;;;;6143096;23;20056;-58
2021/10/15 07:26:45;;;;;;;11.13;8.00;;;;;;;;;;6144992;23;20568;-58
2021/10/15 07:29:11;;;;;;;20.75;10.35;;;;;;;;;;6120042;23;20629;-60
2021/10/15 07:31:36;;;;;;;12.20;8.23;;;;;;;;;;6146530;23;20013;-58
2021/10/15 07:34:05;;;;;;;12.88;8.77;;;;;;;;;;6119043;23;20029;-59
2021/10/15 07:36:31;;;;;;;16.58;9.43;;;;;;;;;;6120252;23;20446;-58
2021/10/15 07:38:56;;;;;;;27.40;16.75;;;;;;;;;;6143819;23;20005;-58
2021/10/15 07:41:21;;;;;;;17.23;11.48;;;;;;;;;;6144205;23;20368;-58
2021/10/15 07:43:50;;;;;;;27.95;15.70;;;;;;;;;;6143330;23;20413;-58
2021/10/15 07:46:16;;;;;;;10.45;7.85;;;;;;;;;;6144020;23;20332;-58
2021/10/15 07:48:41;;;;;;;19.67;11.15;;;;;;;;;;6143782;23;20013;-58
2021/10/15 07:51:07;;;;;;;19.95;11.30;;;;;;;;;;6144188;23;20817;-59
2021/10/15 07:53:33;;;;;;;18.80;10.70;;;;;;;;;;6142229;23;20056;-58
2021/10/15 07:55:58;;;;;;;15.70;10.50;;;;;;;;;;6142840;23;20013;-59
2021/10/15 07:58:23;;;;;;;14.10;8.55;;;;;;;;;;6116354;23;20088;-59
2021/10/15 08:00:49;;;;;;;14.10;9.48;;;;;;;;;;6144341;23;20034;-58
2021/10/15 08:03:14;;;;;;;12.20;8.23;;;;;;;;;;6146365;23;20020;-58
2021/10/15 08:05:40;;;;;;;12.25;8.07;;;;;;;;;;6147126;23;20851;-58
2021/10/15 08:08:05;;;;;;;13.98;9.10;;;;;;;;;;6145949;23;20080;-59
2021/10/15 08:10:31;;;;;;;14.32;8.55;;;;;;;;;;6147719;23;20089;-58
2021/10/15 08:12:57;;;;;;;12.38;8.23;;;;;;;;;;6145194;23;20001;-58
2021/10/15 08:15:23;;;;;;;11.77;8.30;;;;;;;;;;6146133;23;20016;-57
2021/10/15 08:17:48;;;;;;;12.57;8.05;;;;;;;;;;6146552;23;20329;-58
2021/10/15 08:20:16;;;;;;;12.73;8.57;;;;;;;;;;6143776;23;20013;-58
2021/10/15 08:22:41;;;;;;;10.02;7.63;;;;;;;;;;6142393;23;20723;-58
2021/10/15 08:25:07;;;;;;;9.95;7.47;;;;;;;;;;6144751;23;20044;-58
2021/10/15 08:27:33;;;;;;;9.00;7.07;;;;;;;;;;6143489;23;20013;-58
2021/10/15 08:29:59;;;;;;;12.38;8.10;;;;;;;;;;6144917;23;20010;-58
2021/10/15 08:32:26;;;;;;;13.07;9.20;;;;;;;;;;6145831;23;20006;-58
2021/10/15 08:34:51;;;;;;;14.23;8.93;;;;;;;;;;6146742;23;20001;-58
2021/10/15 08:37:17;;;;;;;13.70;8.90;;;;;;;;;;6144063;23;20012;-58
2021/10/15 08:39:42;;;;;;;11.32;7.05;;;;;;;;;;6121509;23;20009;-58
2021/10/15 08:42:09;;;;;;;16.92;8.27;;;;;;;;;;6145941;23;20033;-58
2021/10/15 08:44:41;;;;;;;10.18;7.10;;;;;;;;;;6147020;23;20510;-59
2021/10/15 08:47:07;;;;;;;9.20;6.82;;;;;;;;;;6143143;23;20084;-58
2021/10/15 08:49:32;;;;;;;10.23;7.05;;;;;;;;;;6145159;23;20092;-58
2021/10/15 08:51:58;;;;;;;10.68;6.63;;;;;;;;;;6143897;23;20560;-58
2021/10/15 08:54:23;;;;;;;10.95;6.63;;;;;;;;;;6144714;23;20446;-58
2021/10/15 08:56:49;;;;;;;8.25;6.28;;;;;;;;;;6144182;23;20774;-58
2021/10/15 08:59:23;;;;;;;8.75;6.38;;;;;;;;;;6144853;23;20013;-58
2021/10/15 09:01:49;;;;;;;9.02;5.97;;;;;;;;;;6145358;23;20088;-58
2021/10/15 09:04:18;;;;;;;10.20;5.50;;;;;;;;;;6143988;23;20387;-58
2021/10/15 09:06:46;;;;;;;9.75;5.82;;;;;;;;;;6144390;23;20005;-58
2021/10/15 09:09:11;;;;;;;8.40;5.93;;;;;;;;;;6143252;23;20016;-58
2021/10/15 09:11:46;;;;;;;9.68;6.13;;;;;;;;;;6145012;23;20081;-59
2021/10/15 09:14:19;;;;;;;9.98;5.95;;;;;;;;;;6145713;23;20009;-59
2021/10/15 09:17:08;;;;;;;9.30;6.00;;;;;;;;;;6145998;23;20060;-58
2021/10/15 09:19:48;;;;;;;10.93;6.15;;;;;;;;;;6147151;23;20001;-58
2021/10/15 09:22:26;;;;;;;9.32;5.90;;;;;;;;;;6143683;23;20768;-58
2021/10/15 09:25:03;;;;;;;8.63;6.10;;;;;;;;;;6145896;23;20032;-58
2021/10/15 09:27:36;;;;;;;9.82;6.07;;;;;;;;;;6145625;23;20020;-58
2021/10/15 09:30:09;;;;;;;11.25;6.35;;;;;;;;;;6146179;23;20013;-58
2021/10/15 09:32:55;;;;;;;8.65;5.53;;;;;;;;;;6144073;23;20009;-58
2021/10/15 09:35:29;;;;;;;9.75;5.47;;;;;;;;;;6143397;23;20010;-58
2021/10/15 09:38:02;;;;;;;7.40;5.25;;;;;;;;;;6146169;23;20009;-58
2021/10/15 09:40:33;;;;;;;10.20;5.70;;;;;;;;;;6120911;23;20666;-58
2021/10/15 09:43:02;;;;;;;7.50;5.45;;;;;;;;;;6145424;23;20014;-58
2021/10/15 09:45:37;;;;;;;8.52;6.03;;;;;;;;;;6147008;23;20573;-58
2021/10/15 09:48:21;;;;;;;8.35;5.75;;;;;;;;;;6144300;23;20009;-59
2021/10/15 09:50:48;;;;;;;8.73;5.68;;;;;;;;;;6144788;23;20728;-58
2021/10/15 09:53:13;;;;;;;6.97;5.40;;;;;;;;;;6119015;23;20009;-58
2021/10/15 09:55:42;;;;;;;7.60;4.72;;;;;;;;;;6145909;23;20016;-59
2021/10/15 09:58:12;;;;;;;7.60;5.32;;;;;;;;;;6143135;23;20104;-58
2021/10/15 10:00:38;;;;;;;9.68;5.53;;;;;;;;;;6120301;23;20390;-58
2021/10/15 10:03:04;;;;;;;10.27;5.80;;;;;;;;;;6145915;23;20755;-58
2021/10/15 10:05:30;;;;;;;11.65;5.95;;;;;;;;;;6147618;23;20005;-58
2021/10/15 10:07:56;;;;;;;8.27;5.22;;;;;;;;;;6143400;23;20006;-58
2021/10/15 10:10:28;;;;;;;9.23;5.90;;;;;;;;;;6146070;23;20005;-59
2021/10/15 10:12:54;;;;;;;13.82;6.20;;;;;;;;;;6146331;23;20080;-58
2021/10/15 10:15:25;;;;;;;11.38;5.70;;;;;;;;;;6147315;23;20005;-58
2021/10/15 10:18:13;;;;;;;7.53;5.10;;;;;;;;;;6145864;23;20012;-59
2021/10/15 10:20:44;;;;;;;7.88;6.00;;;;;;;;;;6149066;23;20017;-59
2021/10/15 10:23:22;;;;;;;7.13;5.43;;;;;;;;;;6121745;23;20109;-58
2021/10/15 10:25:48;;;;;;;7.78;5.35;;;;;;;;;;6147410;23;20009;-59
2021/10/15 10:28:19;;;;;;;10.57;5.80;;;;;;;;;;6148612;23;20040;-59
2021/10/15 10:30:54;;;;;;;8.75;5.38;;;;;;;;;;6146571;23;20682;-58
2021/10/15 10:33:21;;;;;;;7.25;4.72;;;;;;;;;;6147530;23;20009;-59
2021/10/15 10:35:48;;;;;;;7.20;5.20;;;;;;;;;;6148681;23;20010;-58
2021/10/15 10:38:20;;;;;;;7.97;4.97;;;;;;;;;;6147995;23;20432;-57
2021/10/15 10:41:01;;;;;;;8.65;5.30;;;;;;;;;;6119355;23;20017;-58
2021/10/15 10:43:41;;;;;;;9.35;5.15;;;;;;;;;;6145850;23;20009;-58
2021/10/15 10:46:15;;;;;;;7.45;5.25;;;;;;;;;;6146080;23;20006;-59
2021/10/15 10:48:47;;;;;;;8.15;5.25;;;;;;;;;;6147534;23;20016;-58
2021/10/15 10:51:26;;;;;;;8.38;4.72;;;;;;;;;;6148890;23;20009;-58
2021/10/15 10:54:07;;;;;;;6.53;4.85;;;;;;;;;;6144924;23;20077;-59
2021/10/15 10:56:42;;;;;;;7.88;4.95;;;;;;;;;;6148666;23;20009;-58
2021/10/15 10:59:22;;;;;;;6.25;4.13;;;;;;;;;;6147561;23;20012;-59
2021/10/15 11:02:04;;;;;;;8.35;4.82;;;;;;;;;;6122342;23;20013;-58
2021/10/15 11:04:51;;;;;;;7.70;4.30;;;;;;;;;;6148276;23;20006;-60
2021/10/15 11:07:16;;;;;;;9.07;4.93;;;;;;;;;;6146620;23;20005;-60
2021/10/15 11:09:50;;;;;;;6.95;4.50;;;;;;;;;;6147325;23;20009;-58
2021/10/15 11:12:37;;;;;;;12.82;5.00;;;;;;;;;;6142616;23;20060;-58
2021/10/15 11:15:06;;;;;;;9.38;4.50;;;;;;;;;;6146029;23;20009;-59
2021/10/15 11:17:35;;;;;;;7.78;5.20;;;;;;;;;;6148325;23;20005;-58
2021/10/15 11:20:14;;;;;;;8.15;4.53;;;;;;;;;;6147363;23;20108;-59
2021/10/15 11:22:42;;;;;;;7.38;4.20;;;;;;;;;;6147628;23;20009;-58
2021/10/15 11:25:09;;;;;;;7.63;5.20;;;;;;;;;;6148225;23;20028;-59
2021/10/15 11:27:35;;;;;;;;;;;;;;;;;;6146754;23;20005;-59
2021/10/15 11:30:01;;;;;;;8.07;4.90;;;;;;;;;;6147836;23;19915;-59
2021/10/15 11:32:35;;;;;;;7.30;4.78;;;;;;;;;;6145957;23;20005;-59
2021/10/15 11:35:11;;;;;;;8.48;4.60;;;;;;;;;;6146736;23;20635;-59
2021/10/15 11:38:00;;;;;;;7.45;4.88;;;;;;;;;;6145177;23;20009;-59
2021/10/15 11:40:33;;;;;;;4.72;4.15;;;;;;;;;;6124678;23;20116;-61
2021/10/15 11:43:20;;;;;;;7.53;3.92;;;;;;;;;;6145005;23;20093;-59
2021/10/15 11:45:46;;;;;;;;;;;;;;;;;;6143810;23;20040;-59
2021/10/15 11:48:15;;;;;;;10.13;4.90;;;;;;;;;;6146291;23;19990;-59
2021/10/15 11:50:59;;;;;;;6.88;4.30;;;;;;;;;;6145732;23;20253;-59
2021/10/15 11:53:27;;;;;;;8.25;4.53;;;;;;;;;;6147912;23;20490;-60
2021/10/15 11:55:54;;;;;;;6.32;4.10;;;;;;;;;;6144539;23;20016;-59
2021/10/15 11:58:41;;;;;;;9.50;4.80;;;;;;;;;;6146145;23;20009;-59
2021/10/15 12:01:09;;;;;;;6.78;4.18;;;;;;;;;;6143672;23;20135;-60
2021/10/15 12:03:50;;;;;;;8.10;4.20;;;;;;;;;;6145095;23;20697;-59
2021/10/15 12:06:25;;;;;;;8.48;4.43;;;;;;;;;;6145622;23;20013;-59
2021/10/15 12:09:01;;;;;;;9.23;4.18;;;;;;;;;;6120399;23;20346;-58
2021/10/15 12:11:42;;;;;;;9.43;4.20;;;;;;;;;;6148209;23;20002;-63
2021/10/15 12:14:26;;;;;;;6.35;4.10;;;;;;;;;;6121052;23;20016;-59
2021/10/15 12:16:54;;;;;;;7.57;4.65;;;;;;;;;;6143113;23;20009;-59
2021/10/15 12:19:21;;;;;;;;;;;;;;;;;;6145587;23;20028;-59
2021/10/15 12:21:58;;;;;;;8.90;6.25;;;;;;;;;;6118581;23;20361;-59
2021/10/15 12:24:27;;;;;;;14.25;7.38;;;;;;;;;;6146771;23;20499;-60
2021/10/15 12:27:04;;;;;;;12.43;8.25;;;;;;;;;;6145793;23;20005;-59
2021/10/15 12:29:31;;;;;;;10.90;8.55;;;;;;;;;;6144694;23;20428;-59
2021/10/15 12:32:17;;;;;;;10.80;7.55;;;;;;;;;;6147866;23;20692;-60
2021/10/15 12:34:54;;;;;;;12.30;8.07;;;;;;;;;;6145791;23;20339;-60
2021/10/15 12:37:34;;;;;;;;;;;;;;;;;;6146639;23;20033;-58
2021/10/15 12:40:44;;;;;;;17.25;8.13;;;;;;;;;;6147597;23;19915;-60
2021/10/15 12:43:13;;;;;;;14.00;9.68;;;;;;;;;;6107165;23;20053;-60
2021/10/15 12:45:47;;;;;;;15.02;9.38;;;;;;;;;;6145925;23;20091;-60
2021/10/15 12:48:19;;;;;;;13.57;10.25;;;;;;;;;;6144327;23;20060;-62
2021/10/15 12:50:56;;;;;;;13.65;9.45;;;;;;;;;;6145834;23;20009;-60
2021/10/15 12:53:22;;;;;;;14.27;8.98;;;;;;;;;;6146117;23;20340;-58
2021/10/15 12:55:58;;;;;;;12.25;9.40;;;;;;;;;;6147905;23;20060;-58
2021/10/15 12:58:27;;;;;;;11.80;8.60;;;;;;;;;;6144368;23;20005;-60
2021/10/15 13:00:55;;;;;;;10.35;7.80;;;;;;;;;;6145249;23;20021;-59
2021/10/15 13:03:22;;;;;;;12.70;8.15;;;;;;;;;;6145446;23;20068;-59
2021/10/15 13:05:49;;;;;;;;;;;;;;;;;;6148496;23;20010;-59
2021/10/15 13:08:18;;;;;;;11.77;7.60;;;;;;;;;;6147185;23;19909;-60
2021/10/15 13:10:45;;;;;;;11.50;7.80;;;;;;;;;;6147140;23;20084;-60
2021/10/15 13:13:11;;;;;;;8.70;7.53;;;;;;;;;;6147462;23;20060;-59
2021/10/15 13:15:36;;;;;;;13.50;8.55;;;;;;;;;;6147336;23;20009;-59
2021/10/15 13:18:02;;;;;;;12.70;8.45;;;;;;;;;;6146191;23;20501;-58
2021/10/15 13:20:28;;;;;;;10.80;8.60;;;;;;;;;;6147920;23;20036;-60
2021/10/15 13:22:55;;;;;;;10.15;7.93;;;;;;;;;;6145765;23;20232;-59
2021/10/15 13:25:21;;;;;;;11.45;8.15;;;;;;;;;;6148105;23;20006;-58
2021/10/15 13:27:47;;;;;;;13.35;8.68;;;;;;;;;;6147189;23;20009;-60
2021/10/15 13:30:12;;;;;;;11.38;7.97;;;;;;;;;;6144524;23;20010;-59
2021/10/15 13:32:38;;;;;;;11.10;8.10;;;;;;;;;;6120045;23;20347;-63
2021/10/15 13:35:05;;;;;;;14.05;8.52;;;;;;;;;;6147323;23;20019;-59
2021/10/15 13:37:37;;;;;;;13.43;9.13;;;;;;;;;;6145623;23;20487;-59
2021/10/15 13:40:04;;;;;;;10.85;8.32;;;;;;;;;;6146234;23;20009;-58
2021/10/15 13:47:46;;;;;;;11.77;9.13;;;;;;;;;;6153346;23;20009;-59
2021/10/15 13:50:11;;;;;;;14.63;9.65;;;;;;;;;;6145533;23;20005;-60
2021/10/15 13:52:38;;;;;;;15.10;9.07;;;;;;;;;;6146145;23;20357;-61
2021/10/15 13:55:08;;;;;;;14.10;9.73;;;;;;;;;;6146370;23;20015;-59
2021/10/15 13:57:36;;;;;;;9.30;7.15;;;;;;;;;;6147796;23;20040;-61
2021/10/15 14:00:15;;;;;;;14.57;7.50;;;;;;;;;;6147199;23;20013;-59
2021/10/15 14:02:53;;;;;;;6.70;4.80;;;;;;;;;;6148824;23;20130;-59
2021/10/15 14:05:18;;;;;;;6.65;5.00;;;;;;;;;;6147035;23;20417;-63
2021/10/15 14:07:44;;;;;;;5.72;4.35;;;;;;;;;;6148184;23;20085;-60
2021/10/15 14:10:10;;;;;;;6.82;4.43;;;;;;;;;;6148196;23;20001;-60
2021/10/15 14:12:35;;;;;;;8.25;5.28;;;;;;;;;;6121661;23;20028;-60
2021/10/15 14:15:01;;;;;;;6.85;4.30;;;;;;;;;;6148573;23;20086;-59
2021/10/15 14:17:27;;;;;;;4.93;4.00;;;;;;;;;;6146692;23;20582;-59
2021/10/15 14:19:53;;;;;;;5.38;3.90;;;;;;;;;;6145476;23;20011;-59
2021/10/15 14:22:19;;;;;;;5.55;4.00;;;;;;;;;;6141675;23;20019;-63
2021/10/15 14:24:45;;;;;;;5.93;3.97;;;;;;;;;;6115962;23;20092;-61
2021/10/15 14:27:10;;;;;;;5.95;4.32;;;;;;;;;;6145333;23;20133;-60
2021/10/15 14:29:36;;;;;;;7.43;5.20;;;;;;;;;;6147184;23;20015;-59
2021/10/15 14:32:02;;;;;;;5.25;3.65;;;;;;;;;;6119008;23;20348;-60
2021/10/15 14:34:29;;;;;;;5.65;3.90;;;;;;;;;;6118730;23;20013;-58
2021/10/15 14:36:55;;;;;;;5.65;3.55;;;;;;;;;;6148231;23;20013;-59
2021/10/15 14:39:21;;;;;;;5.72;3.70;;;;;;;;;;6145165;23;20482;-59
2021/10/15 14:41:47;;;;;;;5.28;4.30;;;;;;;;;;6147405;23;20005;-58
2021/10/15 14:44:14;;;;;;;4.72;4.07;;;;;;;;;;6148167;23;20009;-59
2021/10/15 14:46:40;;;;;;;6.00;4.10;;;;;;;;;;6146470;23;20459;-59
2021/10/15 14:49:06;;;;;;;5.00;3.40;;;;;;;;;;6144626;23;20010;-60
2021/10/15 14:51:32;;;;;;;6.45;3.03;;;;;;;;;;6145554;23;20067;-59
2021/10/15 14:53:57;;;;;;;4.22;3.80;;;;;;;;;;6141882;23;20582;-58
2021/10/15 14:56:23;;;;;;;5.05;3.90;;;;;;;;;;6146005;23;20084;-59
2021/10/15 14:58:48;;;;;;;6.13;4.03;;;;;;;;;;6147431;23;20001;-59
2021/10/15 15:01:13;;;;;;;8.40;3.97;;;;;;;;;;6121072;23;20120;-60
2021/10/15 15:03:40;;;;;;;8.85;4.10;;;;;;;;;;6146920;23;20682;-60
2021/10/15 15:06:07;;;;;;;6.88;3.80;;;;;;;;;;6145963;23;20006;-60